createdAt,value
2023-03-29T00:00:21.222Z,2.90
2023-03-29T00:02:52.110Z,2.30
2023-03-29T00:05:25.553Z,2.73
2023-03-29T00:08:02.085Z,2.80
2023-03-29T00:10:38.471Z,2.70
2023-03-29T00:13:11.773Z,2.67
2023-03-29T00:15:41.986Z,2.40
2023-03-29T00:18:12.375Z,3.10
2023-03-29T00:20:42.545Z,2.40
2023-03-29T00:23:13.037Z,2.87
2023-03-29T00:25:48.605Z,2.90
2023-03-29T00:28:21.531Z,2.37
2023-03-29T00:30:52.330Z,2.90
2023-03-29T00:33:26.706Z,2.23
2023-03-29T00:35:57.044Z,2.67
2023-03-29T00:38:31.270Z,2.70
2023-03-29T00:41:02.592Z,3.00
2023-03-29T00:44:01.309Z,2.67
2023-03-29T00:46:35.139Z,2.80
2023-03-29T00:49:12.928Z,2.70
2023-03-29T00:51:45.985Z,2.80
2023-03-29T00:54:20.841Z,2.50
2023-03-29T00:56:56.986Z,2.73
2023-03-29T00:59:38.695Z,2.40
2023-03-29T01:02:12.152Z,2.50
2023-03-29T01:04:49.850Z,2.60
2023-03-29T01:07:33.000Z,2.83
2023-03-29T01:10:12.734Z,2.80
2023-03-29T01:12:50.486Z,2.90
2023-03-29T01:15:28.447Z,2.70
2023-03-29T01:18:02.845Z,3.00
2023-03-29T01:21:14.906Z,2.47
2023-03-29T01:24:26.823Z,2.63
2023-03-29T01:27:14.101Z,2.33
2023-03-29T01:29:51.459Z,2.10
2023-03-29T01:32:31.155Z,2.80
2023-03-29T01:35:10.393Z,2.10
2023-03-29T01:37:50.012Z,2.30
2023-03-29T01:40:20.645Z,2.13
2023-03-29T01:43:00.813Z,1.90
2023-03-29T01:45:45.008Z,2.80
2023-03-29T01:48:24.261Z,2.03
2023-03-29T01:51:01.526Z,2.37
2023-03-29T01:53:40.789Z,2.00
2023-03-29T01:56:17.348Z,2.10
2023-03-29T01:58:53.152Z,2.47
2023-03-29T02:01:33.732Z,2.20
2023-03-29T02:04:13.385Z,2.00
2023-03-29T02:06:47.122Z,2.40
2023-03-29T02:09:17.651Z,2.40
2023-03-29T02:11:50.322Z,2.10
2023-03-29T02:14:21.494Z,2.30
2023-03-29T02:16:55.543Z,1.80
2023-03-29T02:19:28.438Z,2.30
2023-03-29T02:22:06.828Z,2.10
2023-03-29T02:24:40.947Z,2.60
2023-03-29T02:27:14.411Z,2.13
2023-03-29T02:29:46.970Z,2.60
2023-03-29T02:32:29.351Z,1.90
2023-03-29T02:35:08.313Z,2.57
2023-03-29T02:37:44.359Z,2.40
2023-03-29T02:40:21.051Z,2.27
2023-03-29T02:42:53.460Z,2.60
2023-03-29T02:45:26.330Z,2.27
2023-03-29T02:48:05.003Z,2.17
2023-03-29T02:50:41.997Z,2.17
2023-03-29T02:53:19.125Z,2.00
2023-03-29T02:55:49.913Z,2.27
2023-03-29T02:58:20.838Z,2.37
2023-03-29T03:00:54.162Z,1.97
2023-03-29T03:03:27.667Z,1.83
2023-03-29T03:05:58.142Z,2.90
2023-03-29T03:08:28.415Z,2.03
2023-03-29T03:11:01.337Z,2.20
2023-03-29T03:13:31.762Z,2.23
2023-03-29T03:16:03.500Z,2.33
2023-03-29T03:18:36.377Z,1.93
2023-03-29T03:21:07.349Z,2.40
2023-03-29T03:23:37.576Z,2.33
2023-03-29T03:26:08.917Z,2.20
2023-03-29T03:28:39.153Z,2.20
2023-03-29T03:31:10.423Z,2.00
2023-03-29T03:33:43.897Z,2.10
2023-03-29T03:36:14.885Z,2.50
2023-03-29T03:38:45.471Z,2.20
2023-03-29T03:41:18.889Z,2.10
2023-03-29T03:43:49.325Z,1.90
2023-03-29T03:46:22.285Z,2.00
2023-03-29T03:48:55.131Z,1.93
2023-03-29T03:51:25.333Z,2.30
2023-03-29T03:53:55.585Z,2.90
2023-03-29T03:56:25.990Z,2.20
2023-03-29T03:58:56.937Z,2.10
2023-03-29T04:01:30.143Z,1.93
2023-03-29T04:04:03.229Z,2.30
2023-03-29T04:06:33.528Z,1.80
2023-03-29T04:09:05.025Z,2.13
2023-03-29T04:11:35.200Z,2.10
2023-03-29T04:14:08.517Z,2.03
2023-03-29T04:16:38.745Z,1.90
2023-03-29T04:19:11.860Z,2.20
2023-03-29T04:21:43.000Z,2.30
2023-03-29T04:24:13.208Z,2.10
2023-03-29T04:26:43.386Z,2.00
2023-03-29T04:29:13.700Z,2.10
2023-03-29T04:31:44.060Z,2.03
2023-03-29T04:34:17.080Z,2.13
2023-03-29T04:36:50.326Z,2.17
2023-03-29T04:39:20.843Z,2.17
2023-03-29T04:41:51.016Z,2.17
2023-03-29T04:44:21.521Z,2.13
2023-03-29T04:46:51.770Z,2.07
2023-03-29T04:49:26.091Z,2.20
2023-03-29T04:51:57.233Z,2.27
2023-03-29T04:54:27.544Z,2.13
2023-03-29T04:56:57.780Z,2.13
2023-03-29T04:59:28.066Z,2.20
2023-03-29T05:01:58.256Z,2.30
2023-03-29T05:04:33.255Z,2.00
2023-03-29T05:07:04.609Z,2.00
2023-03-29T05:09:35.700Z,1.80
2023-03-29T05:12:07.559Z,1.70
2023-03-29T05:14:38.315Z,2.00
2023-03-29T05:17:08.483Z,2.27
2023-03-29T05:19:43.537Z,2.00
2023-03-29T05:22:14.248Z,1.97
2023-03-29T05:24:47.712Z,2.60
2023-03-29T05:27:25.330Z,2.33
2023-03-29T05:29:55.566Z,2.00
2023-03-29T05:32:25.847Z,2.27
2023-03-29T05:34:58.917Z,2.10
2023-03-29T05:37:37.577Z,2.20
2023-03-29T05:40:13.324Z,2.37
2023-03-29T05:42:45.894Z,2.13
2023-03-29T05:45:16.288Z,1.97
2023-03-29T05:47:47.233Z,2.20
2023-03-29T05:50:24.114Z,2.20
2023-03-29T05:52:54.440Z,2.27
2023-03-29T05:55:27.334Z,2.00
2023-03-29T05:57:57.552Z,2.20
2023-03-29T06:00:34.163Z,2.37
2023-03-29T06:03:14.053Z,1.87
2023-03-29T06:05:52.473Z,2.53
2023-03-29T06:08:22.632Z,2.27
2023-03-29T06:10:53.722Z,2.53
2023-03-29T06:13:24.407Z,2.10
2023-03-29T06:15:54.693Z,2.57
2023-03-29T06:18:25.462Z,2.53
2023-03-29T06:20:58.350Z,2.20
2023-03-29T06:23:29.129Z,1.90
2023-03-29T06:26:00.339Z,3.10
2023-03-29T06:28:30.743Z,2.20
2023-03-29T06:31:03.418Z,1.80
2023-03-29T06:33:37.829Z,2.07
2023-03-29T06:36:14.100Z,2.77
2023-03-29T06:38:46.011Z,2.13
2023-03-29T06:41:19.978Z,2.63
2023-03-29T06:43:50.161Z,2.43
2023-03-29T06:46:20.455Z,2.13
2023-03-29T06:48:51.415Z,2.77
2023-03-29T06:51:24.605Z,2.30
2023-03-29T06:53:54.771Z,2.30
2023-03-29T06:56:24.971Z,2.27
2023-03-29T06:58:55.159Z,3.17
2023-03-29T07:01:25.463Z,3.20
2023-03-29T07:03:56.748Z,2.33
2023-03-29T07:06:32.355Z,2.35
2023-03-29T07:09:06.884Z,2.47
2023-03-29T07:11:37.748Z,2.38
2023-03-29T07:14:08.964Z,2.50
2023-03-29T07:16:39.383Z,2.85
2023-03-29T07:19:09.606Z,2.85
2023-03-29T07:21:44.925Z,2.03
2023-03-29T07:24:15.112Z,2.60
2023-03-29T07:27:00.189Z,2.57
2023-03-29T07:29:33.971Z,2.67
2023-03-29T07:32:04.978Z,2.40
2023-03-29T07:34:37.845Z,2.50
2023-03-29T07:37:10.787Z,2.53
2023-03-29T07:39:40.986Z,2.42
2023-03-29T07:42:11.289Z,2.30
2023-03-29T07:44:41.800Z,2.50
2023-03-29T07:47:12.826Z,2.58
2023-03-29T07:49:42.964Z,2.50
2023-03-29T07:52:15.856Z,2.63
2023-03-29T07:54:46.284Z,2.60
2023-03-29T07:57:16.854Z,2.53
2023-03-29T07:59:47.195Z,2.63
2023-03-29T08:02:17.426Z,2.30
2023-03-29T08:04:47.738Z,2.83
2023-03-29T08:07:26.034Z,2.38
2023-03-29T08:09:56.490Z,2.60
2023-03-29T08:12:26.925Z,2.30
2023-03-29T08:14:57.386Z,2.60
2023-03-29T08:17:27.784Z,2.53
2023-03-29T08:19:57.987Z,3.00
2023-03-29T08:22:34.506Z,2.20
2023-03-29T08:25:04.843Z,2.33
2023-03-29T08:27:37.920Z,2.47
2023-03-29T08:30:11.575Z,2.65
2023-03-29T08:32:42.325Z,2.47
2023-03-29T08:35:13.552Z,2.80
2023-03-29T08:37:46.426Z,2.42
2023-03-29T08:40:24.692Z,2.50
2023-03-29T08:43:26.073Z,2.60
2023-03-29T08:46:27.476Z,2.35
2023-03-29T08:49:05.369Z,2.60
2023-03-29T08:51:43.212Z,2.67
2023-03-29T08:54:25.155Z,3.13
2023-03-29T08:57:01.359Z,2.50
2023-03-29T08:59:35.396Z,2.60
2023-03-29T09:02:10.180Z,2.78
2023-03-29T09:04:44.185Z,2.45
2023-03-29T09:07:15.341Z,2.40
2023-03-29T09:09:48.283Z,2.90
2023-03-29T09:12:38.941Z,2.78
2023-03-29T09:15:23.834Z,2.78
2023-03-29T09:18:08.829Z,2.70
2023-03-29T09:20:55.116Z,2.63
2023-03-29T09:23:50.275Z,2.80
2023-03-29T09:26:34.127Z,3.22
2023-03-29T09:29:28.424Z,3.75
2023-03-29T09:31:59.415Z,4.10
2023-03-29T09:34:35.737Z,3.80
2023-03-29T09:37:14.287Z,3.75
2023-03-29T09:39:45.407Z,4.43
2023-03-29T09:42:22.218Z,4.20
2023-03-29T09:44:58.425Z,3.17
2023-03-29T09:47:34.518Z,3.15
2023-03-29T09:50:27.274Z,3.13
2023-03-29T09:53:01.434Z,2.90
2023-03-29T09:55:36.600Z,2.88
2023-03-29T09:58:18.883Z,2.42
2023-03-29T10:00:51.326Z,2.75
2023-03-29T10:03:24.413Z,2.30
2023-03-29T10:05:58.743Z,2.40
2023-03-29T10:08:33.695Z,2.30
2023-03-29T10:11:10.334Z,2.42
2023-03-29T10:13:50.996Z,2.33
2023-03-29T10:16:32.224Z,3.08
2023-03-29T10:19:18.106Z,2.90
2023-03-29T10:21:51.795Z,2.72
2023-03-29T10:24:24.045Z,2.72
2023-03-29T10:26:57.520Z,2.28
2023-03-29T10:29:40.249Z,2.53
2023-03-29T10:32:20.432Z,2.45
2023-03-29T10:34:52.094Z,2.33
2023-03-29T10:37:24.048Z,2.55
2023-03-29T10:39:56.841Z,3.53
2023-03-29T10:42:28.997Z,4.78
2023-03-29T10:45:02.943Z,3.20
2023-03-29T10:47:36.856Z,2.90
2023-03-29T10:50:12.164Z,2.85
2023-03-29T10:52:43.713Z,2.88
2023-03-29T10:55:17.274Z,2.00
2023-03-29T10:58:06.776Z,2.67
2023-03-29T11:00:51.112Z,2.20
2023-03-29T11:03:52.545Z,1.92
2023-03-29T11:06:39.508Z,2.40
2023-03-29T11:09:28.509Z,2.60
2023-03-29T11:12:22.013Z,1.88
2023-03-29T11:15:14.739Z,2.13
2023-03-29T11:18:05.793Z,1.80
2023-03-29T11:20:47.720Z,1.95
2023-03-29T11:23:41.658Z,2.10
2023-03-29T11:26:22.689Z,2.25
2023-03-29T11:29:00.519Z,2.03
2023-03-29T11:31:43.729Z,2.10
2023-03-29T11:34:34.877Z,1.85
2023-03-29T11:37:22.139Z,1.90
2023-03-29T11:43:37.148Z,1.88
2023-03-29T11:46:17.041Z,2.25
2023-03-29T11:48:55.806Z,1.70
2023-03-29T11:51:37.497Z,2.22
2023-03-29T11:54:16.738Z,2.03
2023-03-29T11:56:55.443Z,2.30
2023-03-29T11:59:37.400Z,2.95
2023-03-29T12:02:24.134Z,1.48
2023-03-29T12:04:59.734Z,1.58
2023-03-29T12:07:39.002Z,1.40
2023-03-29T12:10:20.800Z,1.40
2023-03-29T12:13:01.093Z,1.73
2023-03-29T12:15:37.198Z,1.50
2023-03-29T12:18:22.933Z,1.75
2023-03-29T12:21:01.625Z,1.80
2023-03-29T12:23:36.571Z,1.58
2023-03-29T12:26:22.180Z,1.83
2023-03-29T12:29:47.645Z,1.67
2023-03-29T12:32:43.566Z,1.70
2023-03-29T12:35:35.297Z,2.00
2023-03-29T12:38:19.328Z,1.65
2023-03-29T12:41:00.786Z,1.55
2023-03-29T12:43:36.696Z,1.40
2023-03-29T12:46:13.125Z,1.80
2023-03-29T12:48:47.590Z,1.95
2023-03-29T12:51:23.688Z,2.13
2023-03-29T12:53:58.799Z,1.58
2023-03-29T12:56:44.031Z,1.70
2023-03-29T12:59:38.824Z,1.63
2023-03-29T13:02:39.400Z,1.35
2023-03-29T13:05:36.387Z,1.60
2023-03-29T13:08:30.520Z,1.45
2023-03-29T13:11:01.138Z,1.70
2023-03-29T13:13:38.041Z,1.70
2023-03-29T13:16:18.650Z,1.52
2023-03-29T13:19:10.516Z,2.15
2023-03-29T13:21:54.612Z,1.77
2023-03-29T13:24:51.346Z,2.08
2023-03-29T13:27:44.298Z,1.58
2023-03-29T13:30:38.417Z,1.95
2023-03-29T13:33:41.542Z,1.70
2023-03-29T13:36:26.016Z,1.40
2023-03-29T13:38:58.515Z,2.50
2023-03-29T13:41:47.207Z,2.00
2023-03-29T13:44:45.635Z,1.80
2023-03-29T13:47:48.860Z,2.20
2023-03-29T13:50:41.522Z,1.70
2023-03-29T13:53:26.446Z,1.75
2023-03-29T13:56:00.584Z,2.25
2023-03-29T13:58:43.904Z,2.10
2023-03-29T14:01:23.480Z,2.30
2023-03-29T14:03:57.098Z,1.63
2023-03-29T14:06:34.677Z,2.10
2023-03-29T14:09:11.404Z,1.95
2023-03-29T14:11:47.528Z,1.73
2023-03-29T14:14:18.930Z,2.15
2023-03-29T14:16:49.488Z,1.65
2023-03-29T14:19:32.077Z,1.70
2023-03-29T14:22:18.275Z,1.85
2023-03-29T14:24:58.448Z,1.95
2023-03-29T14:27:33.963Z,2.70
2023-03-29T14:30:05.143Z,2.40
2023-03-29T14:32:35.427Z,2.35
2023-03-29T14:35:09.675Z,2.63
2023-03-29T14:37:40.705Z,2.05
2023-03-29T14:40:22.982Z,2.30
2023-03-29T14:42:54.268Z,2.40
2023-03-29T14:45:26.452Z,2.30
2023-03-29T14:47:56.798Z,2.30
2023-03-29T14:50:33.295Z,2.35
2023-03-29T14:53:05.774Z,2.63
2023-03-29T14:55:36.788Z,2.40
2023-03-29T14:58:18.030Z,2.60
2023-03-29T15:01:13.749Z,2.42
2023-03-29T15:03:55.555Z,2.63
2023-03-29T15:06:30.249Z,2.55
2023-03-29T15:09:06.606Z,2.50
2023-03-29T15:11:40.553Z,2.40
2023-03-29T15:14:19.778Z,2.40
2023-03-29T15:16:59.568Z,2.38
2023-03-29T15:19:31.121Z,2.50
2023-03-29T15:22:11.330Z,2.70
2023-03-29T15:24:50.447Z,2.20
2023-03-29T15:27:22.317Z,2.83
2023-03-29T15:29:53.049Z,2.70
2023-03-29T15:32:25.921Z,2.67
2023-03-29T15:35:02.514Z,2.35
2023-03-29T15:37:36.021Z,2.85
2023-03-29T15:40:09.941Z,3.08
2023-03-29T15:42:40.413Z,2.83
2023-03-29T15:45:18.863Z,2.83
2023-03-29T15:47:49.551Z,2.58
2023-03-29T15:50:20.186Z,3.22
2023-03-29T15:52:59.982Z,2.90
2023-03-29T15:55:42.969Z,3.50
2023-03-29T15:58:21.397Z,2.47
2023-03-29T16:00:59.645Z,2.45
2023-03-29T16:03:38.668Z,2.20
2023-03-29T16:06:13.790Z,2.15
2023-03-29T16:08:46.725Z,2.28
2023-03-29T16:11:17.034Z,2.20
2023-03-29T16:13:47.295Z,1.58
2023-03-29T16:16:17.726Z,1.52
2023-03-29T16:18:47.996Z,1.30
2023-03-29T16:21:21.548Z,1.55
2023-03-29T16:23:54.305Z,1.52
2023-03-29T16:26:26.269Z,1.77
2023-03-29T16:28:56.465Z,1.63
2023-03-29T16:31:27.253Z,1.60
2023-03-29T16:33:57.517Z,1.40
2023-03-29T16:36:28.405Z,1.38
2023-03-29T16:39:01.749Z,1.70
2023-03-29T16:41:32.131Z,1.90
2023-03-29T16:44:03.179Z,1.83
2023-03-29T16:46:33.808Z,1.77
2023-03-29T16:49:07.966Z,1.50
2023-03-29T16:51:40.565Z,1.75
2023-03-29T16:54:13.656Z,1.80
2023-03-29T16:56:44.154Z,2.08
2023-03-29T16:59:15.466Z,1.90
2023-03-29T17:01:46.234Z,1.83
2023-03-29T17:04:16.509Z,2.13
2023-03-29T17:06:47.175Z,2.88
2023-03-29T17:09:22.451Z,2.40
2023-03-29T17:11:52.802Z,1.80
2023-03-29T17:14:23.014Z,2.00
2023-03-29T17:16:53.209Z,1.70
2023-03-29T17:19:23.451Z,1.70
2023-03-29T17:21:57.580Z,2.38
2023-03-29T17:24:30.289Z,1.98
2023-03-29T17:27:00.771Z,1.88
2023-03-29T17:29:30.970Z,1.80
2023-03-29T17:32:01.594Z,1.88
2023-03-29T17:34:34.314Z,2.20
2023-03-29T17:37:04.825Z,2.03
2023-03-29T17:39:37.946Z,2.45
2023-03-29T17:42:08.496Z,2.10
2023-03-29T17:44:38.679Z,1.88
2023-03-29T17:47:08.897Z,2.30
2023-03-29T17:49:39.126Z,2.40
2023-03-29T17:52:09.327Z,2.10
2023-03-29T17:54:42.102Z,2.75
2023-03-29T17:57:12.367Z,2.42
2023-03-29T17:59:42.707Z,2.30
2023-03-29T18:02:20.402Z,2.47
2023-03-29T18:04:51.955Z,2.65
2023-03-29T18:07:22.255Z,2.05
2023-03-29T18:09:56.080Z,2.08
2023-03-29T18:12:29.025Z,1.90
2023-03-29T18:15:01.178Z,2.03
2023-03-29T18:17:31.706Z,1.75
2023-03-29T18:20:01.998Z,1.67
2023-03-29T18:22:34.367Z,1.92
2023-03-29T18:25:09.589Z,2.70
2023-03-29T18:27:40.822Z,4.20
2023-03-29T18:30:17.907Z,5.20
2023-03-29T18:32:48.344Z,3.13
2023-03-29T18:35:18.998Z,2.42
2023-03-29T18:37:50.727Z,2.50
2023-03-29T18:40:25.301Z,2.35
2023-03-29T18:42:55.608Z,1.95
2023-03-29T18:45:25.838Z,2.08
2023-03-29T18:47:56.209Z,2.25
2023-03-29T18:50:29.613Z,2.15
2023-03-29T18:53:04.105Z,2.83
2023-03-29T18:55:36.972Z,2.22
2023-03-29T18:58:07.485Z,2.60
2023-03-29T19:00:37.757Z,2.40
2023-03-29T19:03:09.870Z,2.47
2023-03-29T19:05:42.168Z,2.50
2023-03-29T19:08:12.422Z,2.30
2023-03-29T19:10:45.151Z,2.63
2023-03-29T19:13:15.392Z,2.53
2023-03-29T19:15:45.762Z,2.58
2023-03-29T19:18:16.196Z,2.55
2023-03-29T19:20:50.979Z,2.65
2023-03-29T19:23:23.876Z,2.70
2023-03-29T19:26:10.542Z,2.22
2023-03-29T19:28:41.107Z,2.17
2023-03-29T19:31:12.223Z,2.15
2023-03-29T19:33:42.604Z,2.60
2023-03-29T19:36:15.231Z,2.60
2023-03-29T19:38:45.946Z,2.40
2023-03-29T19:41:18.740Z,2.50
2023-03-29T19:43:51.764Z,2.60
2023-03-29T19:46:22.061Z,2.38
2023-03-29T19:48:55.654Z,2.85
2023-03-29T19:51:27.168Z,2.47
2023-03-29T19:53:57.634Z,2.60
2023-03-29T19:56:30.699Z,3.00
2023-03-29T19:59:01.062Z,2.83
2023-03-29T20:01:32.409Z,2.95
2023-03-29T20:04:02.909Z,3.10
2023-03-29T20:06:35.898Z,2.88
2023-03-29T20:09:09.525Z,3.10
2023-03-29T20:11:44.298Z,2.67
2023-03-29T20:14:15.028Z,2.53
2023-03-29T20:16:46.336Z,2.63
2023-03-29T20:19:17.536Z,2.28
2023-03-29T20:21:50.851Z,2.47
2023-03-29T20:24:21.070Z,2.25
2023-03-29T20:26:55.757Z,2.50
2023-03-29T20:29:26.087Z,2.40
2023-03-29T20:31:56.825Z,2.35
2023-03-29T20:34:30.026Z,2.40
2023-03-29T20:37:01.057Z,2.67
2023-03-29T20:39:32.092Z,2.83
2023-03-29T20:42:06.563Z,3.28
2023-03-29T20:44:36.753Z,3.03
2023-03-29T20:47:08.478Z,3.15
2023-03-29T20:49:39.916Z,2.90
2023-03-29T20:52:15.534Z,3.38
2023-03-29T20:54:47.784Z,2.50
2023-03-29T20:57:23.441Z,2.15
2023-03-29T20:59:53.634Z,2.50
2023-03-29T21:02:25.866Z,2.53
2023-03-29T21:05:00.366Z,2.42
2023-03-29T21:07:31.200Z,2.60
2023-03-29T21:10:01.489Z,2.85
2023-03-29T21:12:34.354Z,3.75
2023-03-29T21:15:05.636Z,2.85
2023-03-29T21:17:36.081Z,3.33
2023-03-29T21:20:11.343Z,4.47
2023-03-29T21:22:43.137Z,2.95
2023-03-29T21:25:17.231Z,3.03
2023-03-29T21:27:50.104Z,2.58
2023-03-29T21:30:20.370Z,3.00
2023-03-29T21:32:50.730Z,2.70
2023-03-29T21:35:21.630Z,2.55
2023-03-29T21:37:52.786Z,2.78
2023-03-29T21:40:23.121Z,2.92
2023-03-29T21:42:56.056Z,2.60
2023-03-29T21:45:26.275Z,2.80
2023-03-29T21:47:56.711Z,3.15
2023-03-29T21:50:30.800Z,2.97
2023-03-29T21:53:02.157Z,2.53
2023-03-29T21:55:32.341Z,2.70
2023-03-29T21:58:05.586Z,2.50
2023-03-29T22:00:35.936Z,1.95
2023-03-29T22:03:06.603Z,2.28
2023-03-29T22:05:41.189Z,1.80
2023-03-29T22:08:11.870Z,2.33
2023-03-29T22:10:43.268Z,1.70
2023-03-29T22:13:15.978Z,1.70
2023-03-29T22:15:47.561Z,2.10
2023-03-29T22:18:17.737Z,1.55
2023-03-29T22:20:48.567Z,1.95
2023-03-29T22:23:18.764Z,2.10
2023-03-29T22:25:49.134Z,1.92
2023-03-29T22:28:21.893Z,2.00
2023-03-29T22:30:54.979Z,2.50
2023-03-29T22:33:25.129Z,2.38
2023-03-29T22:35:56.850Z,1.98
2023-03-29T22:38:27.105Z,2.15
2023-03-29T22:40:58.795Z,2.35
2023-03-29T22:43:31.607Z,2.20
2023-03-29T22:46:01.848Z,2.13
2023-03-29T22:48:34.629Z,1.92
2023-03-29T22:51:05.646Z,1.73
2023-03-29T22:53:37.132Z,1.85
2023-03-29T22:56:09.588Z,1.70
2023-03-29T22:58:42.605Z,1.92
2023-03-29T23:01:15.752Z,1.88
2023-03-29T23:03:45.951Z,1.80
2023-03-29T23:06:16.345Z,1.73
2023-03-29T23:08:48.749Z,1.92
2023-03-29T23:11:19.074Z,1.85
2023-03-29T23:13:52.623Z,1.50
2023-03-29T23:16:23.284Z,2.00
2023-03-29T23:18:57.158Z,1.90
2023-03-29T23:21:28.078Z,1.83
2023-03-29T23:23:58.467Z,2.00
2023-03-29T23:26:29.707Z,1.67
2023-03-29T23:29:03.504Z,2.08
2023-03-29T23:31:33.978Z,1.85
2023-03-29T23:34:04.264Z,2.20
2023-03-29T23:36:34.478Z,1.90
2023-03-29T23:39:08.046Z,2.22
2023-03-29T23:41:40.389Z,2.13
2023-03-29T23:44:13.159Z,2.30
2023-03-29T23:46:43.786Z,2.00
2023-03-29T23:49:14.006Z,2.15
2023-03-29T23:51:45.202Z,2.33
2023-03-29T23:54:18.261Z,2.17
2023-03-29T23:56:48.575Z,1.88
2023-03-29T23:59:22.798Z,2.17
